createdAt,value
2018-04-24T00:01:04.612Z,92.80
2018-04-24T00:03:32.516Z,92.80
2018-04-24T00:06:01.110Z,93.70
2018-04-24T00:08:29.009Z,93.70
2018-04-24T00:10:57.010Z,93.60
2018-04-24T00:13:26.452Z,93.70
2018-04-24T00:15:54.400Z,93.70
2018-04-24T00:18:22.366Z,93.60
2018-04-24T00:20:50.289Z,93.60
2018-04-24T00:23:18.313Z,93.30
2018-04-24T00:25:46.249Z,93.40
2018-04-24T00:28:14.050Z,93.20
2018-04-24T00:30:41.949Z,94.20
2018-04-24T00:33:09.813Z,95.50
2018-04-24T00:35:37.569Z,95.80
2018-04-24T00:38:05.490Z,96.20
2018-04-24T00:40:33.410Z,96.70
2018-04-24T00:43:01.210Z,97.00
2018-04-24T00:45:29.069Z,96.70
2018-04-24T00:47:57.370Z,96.40
2018-04-24T00:50:25.212Z,96.30
2018-04-24T00:52:53.849Z,95.70
2018-04-24T00:55:21.969Z,95.70
2018-04-24T00:57:49.909Z,96.10
2018-04-24T01:00:17.607Z,96.40
2018-04-24T01:02:45.519Z,96.10
2018-04-24T01:05:13.373Z,95.40
2018-04-24T01:07:41.220Z,95.60
2018-04-24T01:10:09.970Z,96.40
2018-04-24T01:12:38.069Z,96.30
2018-04-24T01:15:06.170Z,96.40
2018-04-24T01:17:34.137Z,96.40
2018-04-24T01:20:02.170Z,94.90
2018-04-24T01:22:30.370Z,94.00
2018-04-24T01:24:58.250Z,91.50
2018-04-24T01:27:26.411Z,90.10
2018-04-24T01:29:54.191Z,91.40
2018-04-24T01:32:22.465Z,91.90
2018-04-24T01:37:22.619Z,91.90
2018-04-24T01:39:50.511Z,91.80
2018-04-24T01:42:18.476Z,91.80
2018-04-24T01:44:46.331Z,91.90
2018-04-24T01:47:14.192Z,92.10
2018-04-24T01:49:41.970Z,92.40
2018-04-24T01:52:09.714Z,93.00
2018-04-24T01:54:37.751Z,93.10
2018-04-24T01:57:05.850Z,93.30
2018-04-24T01:59:33.840Z,92.90
2018-04-24T02:02:01.731Z,93.00
2018-04-24T02:04:29.631Z,93.30
2018-04-24T02:06:58.290Z,93.70
2018-04-24T02:09:26.132Z,93.70
2018-04-24T02:11:54.218Z,93.80
2018-04-24T02:14:22.110Z,93.30
2018-04-24T02:16:50.270Z,92.70
2018-04-24T02:19:18.329Z,92.20
2018-04-24T02:21:46.214Z,91.40
2018-04-24T02:24:14.169Z,94.10
2018-04-24T02:26:42.129Z,94.50
2018-04-24T02:29:10.190Z,94.60
2018-04-24T02:31:38.849Z,94.80
2018-04-24T02:34:06.650Z,94.80
2018-04-24T02:36:34.629Z,94.00
2018-04-24T02:39:09.115Z,93.80
2018-04-24T02:41:37.009Z,94.00
2018-04-24T02:44:04.830Z,94.10
2018-04-24T02:46:32.637Z,94.30
2018-04-24T02:49:00.969Z,94.40
2018-04-24T02:51:29.249Z,94.40
2018-04-24T02:53:57.229Z,92.40
2018-04-24T02:56:25.010Z,93.50
2018-04-24T02:58:52.809Z,94.50
2018-04-24T03:01:20.737Z,93.90
2018-04-24T03:03:48.531Z,93.90
2018-04-24T03:06:17.212Z,92.50
2018-04-24T03:08:45.131Z,92.40
2018-04-24T03:11:13.251Z,91.50
2018-04-24T03:13:41.139Z,90.80
2018-04-24T03:16:09.012Z,91.60
2018-04-24T03:18:36.831Z,91.30
2018-04-24T03:21:05.933Z,91.40
2018-04-24T03:23:34.010Z,91.40
2018-04-24T03:26:01.875Z,91.90
2018-04-24T03:28:29.730Z,91.90
2018-04-24T03:30:58.291Z,91.80
2018-04-24T03:33:26.131Z,91.80
2018-04-24T03:35:54.732Z,91.80
2018-04-24T03:38:22.551Z,91.80
2018-04-24T03:40:50.431Z,91.80
2018-04-24T03:43:19.091Z,91.70
2018-04-24T03:45:47.051Z,91.70
2018-04-24T03:48:14.872Z,92.00
2018-04-24T03:50:42.707Z,91.80
2018-04-24T03:53:10.711Z,91.90
2018-04-24T03:55:38.649Z,91.90
2018-04-24T03:58:06.552Z,91.60
2018-04-24T04:00:34.613Z,91.50
2018-04-24T04:03:02.410Z,91.40
2018-04-24T04:05:30.337Z,91.50
2018-04-24T04:07:58.170Z,91.40
2018-04-24T04:10:26.169Z,91.40
2018-04-24T04:12:54.169Z,91.20
2018-04-24T04:15:22.249Z,91.30
2018-04-24T04:18:02.678Z,92.20
2018-04-24T04:20:42.077Z,92.00
2018-04-24T04:23:21.750Z,92.40
2018-04-24T04:25:50.109Z,92.50
2018-04-24T04:28:17.931Z,92.70
2018-04-24T04:30:46.830Z,93.10
2018-04-24T04:33:14.609Z,92.70
2018-04-24T04:35:42.571Z,93.50
2018-04-24T04:38:10.389Z,93.70
2018-04-24T04:40:38.811Z,94.10
2018-04-24T04:43:06.809Z,94.30
2018-04-24T04:45:34.552Z,93.50
2018-04-24T04:48:03.251Z,92.40
2018-04-24T04:50:31.410Z,92.40
2018-04-24T04:52:59.290Z,92.40
2018-04-24T04:55:27.190Z,92.30
2018-04-24T04:57:55.109Z,91.90
2018-04-24T05:00:22.737Z,91.60
2018-04-24T05:02:50.918Z,91.60
2018-04-24T05:05:18.816Z,91.70
2018-04-24T05:07:46.737Z,91.80
2018-04-24T05:10:14.577Z,92.10
2018-04-24T05:12:42.495Z,91.40
2018-04-24T05:15:10.463Z,91.30
2018-04-24T05:17:38.398Z,91.40
2018-04-24T05:20:06.688Z,91.60
2018-04-24T05:22:34.577Z,91.60
2018-04-24T05:25:02.471Z,91.50
2018-04-24T05:27:30.371Z,92.00
2018-04-24T05:29:58.871Z,92.70
2018-04-24T05:32:26.791Z,92.60
2018-04-24T05:34:54.673Z,91.50
2018-04-24T05:37:23.271Z,89.00
2018-04-24T05:39:51.150Z,89.00
2018-04-24T05:42:19.373Z,85.50
2018-04-24T05:44:47.179Z,84.70
2018-04-24T05:47:15.054Z,84.90
2018-04-24T05:49:42.770Z,87.40
2018-04-24T05:52:10.472Z,88.40
2018-04-24T05:54:38.195Z,89.10
2018-04-24T05:57:05.849Z,87.10
2018-04-24T05:59:33.563Z,81.30
2018-04-24T06:02:01.203Z,79.50
2018-04-24T06:04:28.911Z,80.20
2018-04-24T06:06:56.565Z,82.00
2018-04-24T06:09:24.251Z,82.10
2018-04-24T06:11:51.959Z,83.00
2018-04-24T06:14:19.972Z,86.10
2018-04-24T06:16:48.218Z,87.70
2018-04-24T06:19:16.071Z,88.20
2018-04-24T06:21:44.691Z,88.20
2018-04-24T06:24:12.495Z,88.20
2018-04-24T06:26:41.151Z,86.10
2018-04-24T06:29:10.257Z,86.20
2018-04-24T06:31:38.110Z,85.60
2018-04-24T06:34:05.912Z,86.70
2018-04-24T06:36:33.750Z,86.10
2018-04-24T06:39:01.532Z,86.70
2018-04-24T06:41:29.451Z,86.10
2018-04-24T06:43:57.210Z,88.00
2018-04-24T06:46:25.110Z,87.40
2018-04-24T06:48:52.812Z,85.20
2018-04-24T06:51:20.590Z,83.80
2018-04-24T06:53:48.530Z,81.90
2018-04-24T06:56:16.490Z,81.10
2018-04-24T06:58:44.270Z,78.50
2018-04-24T07:01:11.972Z,76.60
2018-04-24T07:03:39.912Z,76.90
2018-04-24T07:06:08.513Z,75.10
2018-04-24T07:08:36.293Z,75.20
2018-04-24T07:11:04.193Z,75.90
2018-04-24T07:13:32.033Z,75.80
2018-04-24T07:16:00.612Z,72.70
2018-04-24T07:18:28.369Z,72.70
2018-04-24T07:20:56.171Z,72.60
2018-04-24T07:23:24.069Z,70.50
2018-04-24T07:25:52.768Z,71.10
2018-04-24T07:28:20.609Z,71.10
2018-04-24T07:30:48.772Z,71.90
2018-04-24T07:33:16.531Z,69.80
2018-04-24T07:35:44.329Z,71.90
2018-04-24T07:38:12.169Z,71.10
2018-04-24T07:40:39.951Z,68.40
2018-04-24T07:43:08.570Z,71.20
2018-04-24T07:45:36.349Z,71.10
2018-04-24T07:48:04.129Z,72.20
2018-04-24T07:50:32.033Z,72.80
2018-04-24T07:52:59.769Z,73.20
2018-04-24T07:55:27.869Z,73.10
2018-04-24T07:57:55.611Z,74.00
2018-04-24T08:00:23.342Z,74.60
2018-04-24T08:02:51.255Z,73.70
2018-04-24T08:05:19.356Z,74.20
2018-04-24T08:07:47.198Z,76.10
2018-04-24T08:10:15.198Z,75.60
2018-04-24T08:12:43.135Z,75.90
2018-04-24T08:15:11.417Z,75.20
2018-04-24T08:17:39.318Z,74.60
2018-04-24T08:20:07.235Z,75.70
2018-04-24T08:22:39.915Z,76.30
2018-04-24T08:25:07.854Z,76.40
2018-04-24T08:27:35.661Z,76.10
2018-04-24T08:30:03.634Z,75.90
2018-04-24T08:32:31.894Z,76.70
2018-04-24T08:35:00.173Z,75.90
2018-04-24T08:37:27.977Z,76.10
2018-04-24T08:39:55.813Z,76.70
2018-04-24T08:42:23.753Z,77.20
2018-04-24T08:44:51.572Z,76.70
2018-04-24T08:47:19.593Z,77.60
2018-04-24T08:49:48.073Z,79.50
2018-04-24T08:52:16.732Z,77.80
2018-04-24T08:54:44.533Z,77.80
2018-04-24T08:57:12.574Z,79.00
2018-04-24T08:59:40.413Z,80.70
2018-04-24T09:02:08.240Z,79.60
2018-04-24T09:04:37.788Z,80.30
2018-04-24T09:07:05.651Z,80.20
2018-04-24T09:09:33.589Z,79.50
2018-04-24T09:12:01.569Z,78.50
2018-04-24T09:14:29.569Z,78.90
2018-04-24T09:16:57.328Z,77.90
2018-04-24T09:19:25.665Z,78.40
2018-04-24T09:21:53.591Z,78.10
2018-04-24T09:24:21.508Z,79.10
2018-04-24T09:26:49.369Z,78.80
2018-04-24T09:29:17.167Z,77.60
2018-04-24T09:31:45.007Z,78.10
2018-04-24T09:34:13.687Z,77.80
2018-04-24T09:36:42.286Z,77.90
2018-04-24T09:39:10.246Z,77.90
2018-04-24T09:41:38.127Z,80.30
2018-04-24T09:44:06.096Z,79.10
2018-04-24T09:46:34.087Z,79.70
2018-04-24T09:49:01.928Z,78.80
2018-04-24T09:51:29.847Z,79.50
2018-04-24T09:53:57.579Z,78.70
2018-04-24T09:56:25.446Z,78.50
2018-04-24T09:58:53.462Z,79.80
2018-04-24T10:01:22.214Z,76.80
2018-04-24T10:03:50.928Z,77.90
2018-04-24T10:06:18.748Z,77.90
2018-04-24T10:08:46.577Z,80.00
2018-04-24T10:11:14.551Z,80.00
2018-04-24T10:13:42.408Z,79.90
2018-04-24T10:16:10.228Z,80.30
2018-04-24T10:18:38.247Z,80.80
2018-04-24T10:21:06.227Z,78.80
2018-04-24T10:23:34.487Z,79.90
2018-04-24T10:26:02.287Z,81.30
2018-04-24T10:28:30.248Z,77.10
2018-04-24T10:30:58.175Z,76.10
2018-04-24T10:33:26.067Z,77.00
2018-04-24T10:35:53.967Z,75.70
2018-04-24T10:38:22.029Z,74.20
2018-04-24T10:43:21.827Z,77.90
2018-04-24T10:45:49.807Z,77.40
2018-04-24T10:48:17.674Z,78.30
2018-04-24T10:50:45.468Z,76.80
2018-04-24T10:53:14.315Z,75.40
2018-04-24T10:55:42.929Z,77.10
2018-04-24T10:58:10.869Z,77.20
2018-04-24T11:00:38.799Z,75.80
2018-04-24T11:03:07.049Z,73.20
2018-04-24T11:05:35.068Z,73.00
2018-04-24T11:08:02.868Z,72.20
2018-04-24T11:10:30.829Z,72.50
2018-04-24T11:12:58.908Z,73.00
2018-04-24T11:15:27.088Z,72.40
2018-04-24T11:17:55.047Z,71.90
2018-04-24T11:20:23.007Z,68.80
2018-04-24T11:22:50.827Z,70.10
2018-04-24T11:25:18.772Z,70.40
2018-04-24T11:27:46.608Z,71.20
2018-04-24T11:30:14.512Z,70.70
2018-04-24T11:32:42.293Z,67.30
2018-04-24T11:35:10.029Z,72.00
2018-04-24T11:37:37.789Z,70.20
2018-04-24T11:40:05.929Z,71.50
2018-04-24T11:42:33.811Z,71.60
2018-04-24T11:45:01.577Z,67.60
2018-04-24T11:47:29.529Z,66.80
2018-04-24T11:49:58.130Z,65.50
2018-04-24T11:52:26.193Z,65.40
2018-04-24T11:54:53.908Z,63.90
2018-04-24T11:57:22.089Z,62.80
2018-04-24T11:59:49.808Z,60.80
2018-04-24T12:02:17.735Z,61.00
2018-04-24T12:04:45.593Z,58.60
2018-04-24T12:07:13.612Z,58.00
2018-04-24T12:09:41.432Z,59.50
2018-04-24T12:12:09.251Z,62.80
2018-04-24T12:14:37.152Z,58.30
2018-04-24T12:17:04.952Z,59.70
2018-04-24T12:19:32.952Z,56.80
2018-04-24T12:22:02.189Z,58.90
2018-04-24T12:24:30.882Z,56.60
2018-04-24T12:26:58.728Z,56.60
2018-04-24T12:29:26.629Z,59.00
2018-04-24T12:31:54.475Z,58.80
2018-04-24T12:34:22.469Z,54.60
2018-04-24T12:36:51.590Z,55.20
2018-04-24T12:39:19.590Z,52.60
2018-04-24T12:41:47.450Z,55.70
2018-04-24T12:44:15.670Z,53.80
2018-04-24T12:46:43.539Z,54.60
2018-04-24T12:49:11.431Z,55.90
2018-04-24T12:51:39.480Z,54.50
2018-04-24T12:54:07.450Z,54.10
2018-04-24T12:56:36.161Z,54.70
2018-04-24T12:59:04.182Z,55.10
2018-04-24T13:01:32.070Z,57.00
2018-04-24T13:03:59.989Z,57.00
2018-04-24T13:06:28.110Z,56.40
2018-04-24T13:08:55.960Z,57.50
2018-04-24T13:11:23.878Z,57.80
2018-04-24T13:13:51.670Z,57.90
2018-04-24T13:16:19.831Z,57.80
2018-04-24T13:18:47.731Z,55.90
2018-04-24T13:21:15.750Z,55.60
2018-04-24T13:23:43.511Z,56.20
2018-04-24T13:26:12.131Z,57.40
2018-04-24T13:28:40.811Z,58.50
2018-04-24T13:31:09.182Z,58.50
2018-04-24T13:33:37.051Z,58.40
2018-04-24T13:36:04.852Z,57.40
2018-04-24T13:38:32.790Z,56.00
2018-04-24T13:41:00.712Z,56.40
2018-04-24T13:43:28.610Z,60.10
2018-04-24T13:45:57.150Z,57.80
2018-04-24T13:48:25.069Z,56.60
2018-04-24T13:50:52.949Z,57.70
2018-04-24T13:53:20.929Z,57.50
2018-04-24T13:55:48.769Z,57.50
2018-04-24T13:58:16.649Z,57.80
2018-04-24T14:00:44.536Z,58.40
2018-04-24T14:03:13.273Z,58.30
2018-04-24T14:05:41.132Z,58.30
2018-04-24T14:08:09.653Z,59.40
2018-04-24T14:10:37.674Z,59.40
2018-04-24T14:13:05.392Z,59.10
2018-04-24T14:15:33.375Z,59.00
2018-04-24T14:18:01.152Z,59.60
2018-04-24T14:20:29.093Z,59.00
2018-04-24T14:22:57.713Z,57.80
2018-04-24T14:25:25.511Z,57.80
2018-04-24T14:27:53.351Z,58.20
2018-04-24T14:30:21.352Z,58.10
2018-04-24T14:32:49.342Z,57.40
2018-04-24T14:35:17.172Z,58.10
2018-04-24T14:37:45.113Z,58.50
2018-04-24T14:40:13.035Z,59.60
2018-04-24T14:42:40.856Z,57.80
2018-04-24T14:45:09.732Z,56.80
2018-04-24T14:47:37.592Z,56.80
2018-04-24T14:50:06.296Z,59.80
2018-04-24T14:52:34.152Z,59.20
2018-04-24T14:55:01.978Z,58.70
2018-04-24T14:57:29.932Z,59.00
2018-04-24T14:59:58.654Z,58.00
2018-04-24T15:02:27.351Z,59.50
2018-04-24T15:04:56.117Z,58.60
2018-04-24T15:07:24.112Z,58.60
2018-04-24T15:09:52.331Z,59.10
2018-04-24T15:12:20.170Z,57.10
2018-04-24T15:14:48.091Z,57.20
2018-04-24T15:17:16.631Z,58.10
2018-04-24T15:19:44.350Z,58.10
2018-04-24T15:22:13.270Z,57.40
2018-04-24T15:24:41.289Z,57.20
2018-04-24T15:27:08.988Z,56.20
2018-04-24T15:29:36.854Z,56.30
2018-04-24T15:32:04.852Z,56.50
2018-04-24T15:34:32.810Z,56.00
2018-04-24T15:37:00.797Z,56.40
2018-04-24T15:39:28.728Z,57.60
2018-04-24T15:41:56.869Z,57.90
2018-04-24T15:44:31.705Z,57.70
2018-04-24T15:47:06.114Z,58.90
2018-04-24T15:49:41.079Z,57.90
2018-04-24T15:52:17.073Z,56.70
2018-04-24T15:54:51.208Z,56.80
2018-04-24T15:57:25.726Z,55.90
2018-04-24T16:00:01.280Z,55.90
2018-04-24T16:02:29.596Z,55.70
2018-04-24T16:04:57.436Z,56.00
2018-04-24T16:07:25.396Z,55.50
2018-04-24T16:09:53.250Z,56.90
2018-04-24T16:12:21.148Z,56.40
2018-04-24T16:14:49.009Z,56.00
2018-04-24T16:17:16.912Z,56.00
2018-04-24T16:19:44.788Z,57.30
2018-04-24T16:22:12.483Z,56.00
2018-04-24T16:24:40.427Z,57.10
2018-04-24T16:27:08.354Z,57.30
2018-04-24T16:29:36.486Z,56.60
2018-04-24T16:32:04.447Z,57.00
2018-04-24T16:34:32.326Z,56.70
2018-04-24T16:37:00.226Z,57.20
2018-04-24T16:39:28.035Z,57.10
2018-04-24T16:41:56.205Z,58.20
2018-04-24T16:44:23.956Z,57.40
2018-04-24T16:46:51.788Z,58.20
2018-04-24T16:49:19.672Z,58.10
2018-04-24T16:51:47.567Z,57.80
2018-04-24T16:54:15.274Z,57.60
2018-04-24T16:56:43.251Z,57.40
2018-04-24T16:59:11.149Z,57.40
2018-04-24T17:01:38.848Z,57.90
2018-04-24T17:04:06.729Z,58.90
2018-04-24T17:06:34.453Z,58.40
2018-04-24T17:09:02.268Z,59.30
2018-04-24T17:11:30.006Z,59.10
2018-04-24T17:13:57.732Z,59.20
2018-04-24T17:16:25.614Z,59.00
2018-04-24T17:18:53.534Z,59.30
2018-04-24T17:21:21.462Z,59.40
2018-04-24T17:23:49.110Z,59.30
2018-04-24T17:26:17.011Z,59.70
2018-04-24T17:28:44.830Z,60.40
2018-04-24T17:31:17.527Z,61.00
2018-04-24T17:33:45.269Z,61.70
2018-04-24T17:36:13.069Z,62.00
2018-04-24T17:38:40.952Z,63.00
2018-04-24T17:41:08.810Z,63.00
2018-04-24T17:43:36.609Z,63.10
2018-04-24T17:46:05.349Z,62.10
2018-04-24T17:48:33.109Z,62.10
2018-04-24T17:51:01.131Z,61.60
2018-04-24T17:53:29.070Z,61.40
2018-04-24T17:55:56.830Z,61.50
2018-04-24T17:58:24.650Z,61.70
2018-04-24T18:00:52.573Z,61.70
2018-04-24T18:03:20.373Z,61.90
2018-04-24T18:05:48.372Z,62.70
2018-04-24T18:08:16.972Z,63.70
2018-04-24T18:10:44.864Z,63.70
2018-04-24T18:13:12.653Z,63.70
2018-04-24T18:15:40.493Z,63.80
2018-04-24T18:18:08.912Z,63.70
2018-04-24T18:20:36.853Z,63.70
2018-04-24T18:23:04.892Z,64.20
2018-04-24T18:25:32.712Z,64.70
2018-04-24T18:28:00.652Z,65.40
2018-04-24T18:30:28.410Z,64.70
2018-04-24T18:32:56.375Z,65.00
2018-04-24T18:35:24.612Z,65.40
2018-04-24T18:37:52.411Z,65.70
2018-04-24T18:40:20.297Z,65.60
2018-04-24T18:42:48.271Z,66.30
2018-04-24T18:45:16.531Z,66.10
2018-04-24T18:47:44.370Z,65.90
2018-04-24T18:50:12.248Z,66.00
2018-04-24T18:52:40.049Z,68.30
2018-04-24T18:55:08.006Z,69.00
2018-04-24T18:57:35.987Z,69.50
2018-04-24T19:00:03.905Z,70.00
2018-04-24T19:02:31.793Z,70.30
2018-04-24T19:05:00.467Z,70.10
2018-04-24T19:07:28.347Z,70.00
2018-04-24T19:09:56.346Z,70.10
2018-04-24T19:12:24.326Z,70.10
2018-04-24T19:14:52.387Z,70.00
2018-04-24T19:17:20.331Z,70.40
2018-04-24T19:19:48.166Z,70.60
2018-04-24T19:22:15.983Z,71.00
2018-04-24T19:24:49.366Z,71.10
2018-04-24T19:27:17.309Z,71.40
2018-04-24T19:29:45.290Z,71.60
2018-04-24T19:32:18.725Z,71.70
2018-04-24T19:34:46.565Z,71.90
2018-04-24T19:37:14.666Z,72.00
2018-04-24T19:39:47.965Z,72.20
2018-04-24T19:42:15.827Z,72.60
2018-04-24T19:44:43.794Z,72.70
2018-04-24T19:47:11.907Z,72.50
2018-04-24T19:49:45.154Z,73.10
2018-04-24T19:52:13.049Z,73.30
2018-04-24T19:54:47.450Z,73.50
2018-04-24T19:57:15.307Z,73.50
2018-04-24T19:59:43.428Z,73.50
2018-04-24T20:02:12.646Z,73.30
2018-04-24T20:04:40.897Z,73.60
2018-04-24T20:07:08.967Z,73.80
2018-04-24T20:09:37.262Z,67.30
2018-04-24T20:12:05.106Z,67.40
2018-04-24T20:14:32.986Z,68.10
2018-04-24T20:17:00.866Z,68.10
2018-04-24T20:19:29.009Z,69.20
2018-04-24T20:21:57.046Z,71.20
2018-04-24T20:24:25.454Z,72.50
2018-04-24T20:26:53.706Z,74.10
2018-04-24T20:29:21.889Z,79.00
2018-04-24T20:31:49.806Z,80.90
2018-04-24T20:34:17.965Z,81.10
2018-04-24T20:36:46.066Z,81.60
2018-04-24T20:39:13.968Z,81.80
2018-04-24T20:41:42.685Z,80.60
2018-04-24T20:44:11.245Z,80.30
2018-04-24T20:46:39.175Z,80.30
2018-04-24T20:49:07.106Z,80.40
2018-04-24T20:51:35.346Z,80.80
2018-04-24T20:54:03.604Z,79.40
2018-04-24T20:56:31.526Z,78.80
2018-04-24T20:58:59.446Z,78.60
2018-04-24T21:01:27.649Z,79.00
2018-04-24T21:03:57.047Z,79.00
2018-04-24T21:06:24.988Z,78.90
2018-04-24T21:08:53.210Z,78.80
2018-04-24T21:11:21.187Z,78.70
2018-04-24T21:13:49.164Z,78.40
2018-04-24T21:16:17.092Z,78.40
2018-04-24T21:18:45.109Z,78.50
2018-04-24T21:21:12.938Z,78.40
2018-04-24T21:23:40.939Z,78.20
2018-04-24T21:26:09.031Z,77.90
2018-04-24T21:28:36.855Z,78.10
2018-04-24T21:31:04.692Z,77.80
2018-04-24T21:33:32.506Z,77.80
2018-04-24T21:36:00.387Z,78.20
2018-04-24T21:38:29.969Z,78.30
2018-04-24T21:40:57.795Z,79.00
2018-04-24T21:43:25.751Z,79.10
2018-04-24T21:45:53.547Z,78.80
2018-04-24T21:48:21.350Z,78.80
2018-04-24T21:50:49.206Z,78.90
2018-04-24T21:53:17.169Z,78.80
2018-04-24T21:55:45.148Z,78.90
2018-04-24T21:58:13.142Z,79.30
2018-04-24T22:00:41.467Z,79.30
2018-04-24T22:03:09.326Z,79.60
2018-04-24T22:05:37.186Z,79.70
2018-04-24T22:08:05.186Z,79.70
2018-04-24T22:10:33.126Z,79.90
2018-04-24T22:13:01.487Z,80.10
2018-04-24T22:15:29.454Z,80.30
2018-04-24T22:17:58.126Z,80.80
2018-04-24T22:20:25.966Z,80.80
2018-04-24T22:22:53.994Z,81.10
2018-04-24T22:25:21.913Z,81.00
2018-04-24T22:27:49.785Z,80.80
2018-04-24T22:30:19.492Z,81.00
2018-04-24T22:32:47.452Z,81.10
2018-04-24T22:35:15.365Z,81.20
2018-04-24T22:37:43.145Z,81.60
2018-04-24T22:40:10.965Z,81.70
2018-04-24T22:42:38.765Z,81.60
2018-04-24T22:45:06.765Z,81.50
2018-04-24T22:47:34.505Z,81.90
2018-04-24T22:50:02.470Z,81.70
2018-04-24T22:52:30.367Z,81.70
2018-04-24T22:54:58.505Z,81.90
2018-04-24T22:57:27.386Z,82.10
2018-04-24T22:59:55.485Z,82.10
2018-04-24T23:02:23.332Z,82.30
2018-04-24T23:04:51.231Z,82.50
2018-04-24T23:07:19.291Z,82.60
2018-04-24T23:09:53.951Z,83.10
2018-04-24T23:12:33.454Z,83.30
2018-04-24T23:15:12.871Z,83.50
2018-04-24T23:17:52.494Z,83.60
2018-04-24T23:20:19.963Z,83.80
2018-04-24T23:22:47.971Z,83.80
2018-04-24T23:25:15.811Z,83.80
2018-04-24T23:27:43.572Z,84.30
2018-04-24T23:30:11.474Z,84.60
2018-04-24T23:32:39.351Z,84.50
2018-04-24T23:35:07.239Z,84.70
2018-04-24T23:37:36.017Z,85.80
2018-04-24T23:40:03.891Z,85.70
2018-04-24T23:42:31.838Z,85.90
2018-04-24T23:44:59.740Z,85.90
2018-04-24T23:47:27.752Z,86.30
2018-04-24T23:49:55.552Z,86.80
2018-04-24T23:52:23.392Z,87.10
2018-04-24T23:54:51.332Z,87.10
2018-04-24T23:57:19.151Z,87.30
2018-04-24T23:59:47.092Z,87.40
